Flight Track Log - Related Links

Times and Time Zones

All times are in EDT time to prevent confusion due to time zone crossing. See the SWA830 flight status page for this flight to view local times or setup timezone preferences in your user account.

Time Position Orientation Groundspeed Altitude Reporting Facility
EDT Latitude Longitude Course Direction KTS MPH feet Rate Location/Type
Sat 01:06:19 PM 33.6500 -84.5000 284° West 201 231 3,100  Level Atlanta TRACON
Sat 01:07:19 PM 33.6667 -84.5833 284° West 266 306 5,600 3,000 Climbing Atlanta TRACON
Sat 01:08:53 PM 33.6942 -84.7278 283° West 297 342 10,800 3,039 Climbing Atlanta Center
Sat 01:09:53 PM 33.6894 -84.8453 267° West 333 383 13,400 2,900 Climbing Atlanta Center
Sat 01:10:53 PM 33.6781 -84.9700 264° West 370 426 16,600 3,100 Climbing Atlanta Center
Sat 01:11:53 PM 33.6644 -85.0969 263° West 394 453 19,600 2,550 Climbing Atlanta Center
Sat 01:12:53 PM 33.6531 -85.2117 263° West 394 453 21,700 2,100 Climbing Atlanta Center
Sat 01:13:53 PM 33.6517 -85.3489 269° West 399 459 23,800 2,200 Climbing Atlanta Center
Sat 01:14:53 PM 33.6542 -85.4864 271° West 412 474 26,100 2,250 Climbing Atlanta Center
Sat 01:15:53 PM 33.6589 -85.6286 272° West 424 488 28,300 2,200 Climbing Atlanta Center
Sat 01:16:53 PM 33.6611 -85.7733 271° West 424 488 30,500 2,200 Climbing Atlanta Center
Sat 01:17:53 PM 33.6592 -85.9056 269° West 414 476 32,700 2,300 Climbing Atlanta Center
Sat 01:18:53 PM 33.6611 -86.0356 271° West 403 464 35,100 1,900 Climbing Atlanta Center
Sat 01:19:53 PM 33.6611 -86.1653 270° West 398 458 36,500 1,350 Climbing Atlanta Center
Sat 01:20:53 PM 33.6631 -86.2975 271° West 398 458 37,800 1,500 Climbing Atlanta Center
Sat 01:21:53 PM 33.6647 -86.4225 271° West 398 458 39,500 1,100 Climbing Atlanta Center
Sat 01:22:53 PM 33.6644 -86.5497 270° West 386 444 40,000 250 Climbing Atlanta Center
Sat 01:23:53 PM 33.6658 -86.6769 271° West 386 444 40,000  Level Atlanta Center
Sat 01:24:53 PM 33.6672 -86.8019 271° West 386 444 40,000  Level Atlanta Center
Sat 01:25:53 PM 33.6622 -86.9314 267° West 386 444 40,000  Level Atlanta Center
Sat 01:26:53 PM 33.6508 -87.0608 264° West 386 444 40,000  Level Atlanta Center
Sat 01:28:41 PM 33.6236 -87.2939 262° West 392 451 40,000  Level Memphis Center
Sat 01:29:41 PM 33.6119 -87.4189 264° West 387 445 40,000  Level Memphis Center
Sat 01:30:41 PM 33.5981 -87.5442 262° West 387 445 40,000  Level Memphis Center
Sat 01:31:41 PM 33.5864 -87.6717 264° West 387 445 40,000  Level Memphis Center
Sat 01:32:41 PM 33.5706 -87.8092 262° West 387 445 40,000  Level Memphis Center
Sat 01:33:41 PM 33.5561 -87.9317 262° West 387 445 40,000  Level Memphis Center
Sat 01:34:41 PM 33.5439 -88.0542 263° West 387 445 40,000  Level Memphis Center
Sat 01:35:42 PM 33.5294 -88.1792 262° West 387 445 40,000  Level Memphis Center
Sat 01:36:41 PM 33.5211 -88.3014 265° West 382 440 40,000  Level Memphis Center
Sat 01:37:41 PM 33.5064 -88.4239 262° West 377 434 40,000  Level Memphis Center
Sat 01:38:41 PM 33.4936 -88.5439 263° West 371 427 40,000  Level Memphis Center
Sat 01:39:41 PM 33.4786 -88.6661 262° West 371 427 40,000  Level Memphis Center
Sat 01:40:41 PM 33.4636 -88.7833 261° West 371 427 40,000  Level Memphis Center
Sat 01:41:41 PM 33.4503 -88.9033 262° West 371 427 40,000  Level Memphis Center
Sat 01:42:41 PM 33.4372 -89.0253 263° West 371 427 40,000  Level Memphis Center
Sat 01:43:41 PM 33.4194 -89.1428 260° West 371 427 40,000  Level Memphis Center
Sat 01:44:41 PM 33.4081 -89.2647 264° West 371 427 40,000  Level Memphis Center
Sat 01:45:41 PM 33.3944 -89.3844 262° West 371 427 40,000  Level Memphis Center
Sat 01:46:41 PM 33.4350 -89.4933 294° West 358 412 40,000  Level Memphis Center
Sat 01:47:41 PM 33.4836 -89.5900 301° West 353 406 40,000  Level Memphis Center
Sat 01:48:41 PM 33.5322 -89.6944 299° West 358 412 40,000  Level Memphis Center
Sat 01:49:42 PM 33.5808 -89.8011 299° West 363 418 40,000  Level Memphis Center
Sat 01:50:41 PM 33.6292 -89.9056 299° West 363 418 40,000  Level Memphis Center
Sat 01:51:41 PM 33.6797 -90.0103 300° West 363 418 40,000  Level Memphis Center
Sat 01:52:41 PM 33.7278 -90.1175 298° West 368 423 40,000  Level Memphis Center
Sat 01:53:41 PM 33.7739 -90.2197 299° West 368 423 40,000  Level Memphis Center
Sat 01:54:41 PM 33.8283 -90.3372 299° West 368 423 40,000  Level Memphis Center
Sat 01:55:41 PM 33.8700 -90.4322 298° West 363 418 40,000  Level Memphis Center
Sat 01:56:42 PM 33.9158 -90.5400 297° West 363 418 40,000  Level Memphis Center
Sat 01:57:41 PM 33.9658 -90.6428 300° West 358 412 40,000  Level Memphis Center
Sat 01:58:41 PM 34.0114 -90.7456 298° West 353 406 40,000  Level Memphis Center
Sat 01:59:41 PM 34.0633 -90.8586 299° West 346 398 40,000  Level Memphis Center
Sat 02:00:41 PM 34.1108 -90.9642 299° West 352 405 40,000  Level Memphis Center
Sat 02:01:41 PM 34.1603 -91.0700 299° West 347 399 40,000  Level Memphis Center
Sat 02:02:41 PM 34.2075 -91.1758 298° West 352 405 40,000  Level Memphis Center
Sat 02:03:41 PM 34.2550 -91.2844 298° West 352 405 40,000  Level Memphis Center
Sat 02:04:41 PM 34.3061 -91.3931 300° West 365 420 40,000  Level Memphis Center
Sat 02:05:41 PM 34.3533 -91.4994 298° West 370 426 40,000  Level Memphis Center
Sat 02:06:41 PM 34.4022 -91.6083 299° West 370 426 40,000  Level Memphis Center
Sat 02:07:41 PM 34.4472 -91.7097 298° West 370 426 40,000  Level Memphis Center
Sat 02:08:41 PM 34.4919 -91.8161 297° West 370 426 40,000  Level Memphis Center
Sat 02:09:41 PM 34.5406 -91.9228 299° West 370 426 40,000  Level Memphis Center
Sat 02:10:41 PM 34.5894 -92.0322 299° West 370 426 40,000  Level Memphis Center
Sat 02:11:41 PM 34.6336 -92.1417 296° West 370 426 40,000  Level Memphis Center
Sat 02:12:41 PM 34.6800 -92.2511 297° West 370 426 40,000  Level Memphis Center
Sat 02:13:42 PM 34.7306 -92.3586 300° West 370 426 40,000  Level Memphis Center
Sat 02:14:41 PM 34.7789 -92.4683 298° West 370 426 40,000  Level Memphis Center
Sat 02:15:41 PM 34.8269 -92.5808 298° West 375 432 40,000  Level Memphis Center
Sat 02:16:41 PM 34.8731 -92.6908 297° West 375 432 40,000  Level Memphis Center
Sat 02:17:41 PM 34.9189 -92.8011 297° West 370 426 40,000  Level Memphis Center
Sat 02:18:41 PM 34.9647 -92.9114 297° West 370 426 40,000  Level Memphis Center
Sat 02:19:41 PM 35.0103 -93.0217 297° West 370 426 40,000  Level Memphis Center
Sat 02:20:42 PM 35.0639 -93.1428 298° West 370 426 40,000  Level Memphis Center
Sat 02:21:41 PM 35.1114 -93.2558 297° West 370 426 40,000  Level Memphis Center
Sat 02:22:41 PM 35.1567 -93.3717 296° West 376 433 40,000  Level Memphis Center
Sat 02:23:41 PM 35.2061 -93.4828 299° West 371 427 40,000  Level Memphis Center
Sat 02:24:41 PM 35.2533 -93.5964 297° West 371 427 40,000  Level Memphis Center
Sat 02:25:41 PM 35.3003 -93.7075 297° West 371 427 40,000  Level Memphis Center
Sat 02:26:41 PM 35.3472 -93.8217 297° West 371 427 40,000  Level Memphis Center
Sat 02:27:41 PM 35.3942 -93.9356 297° West 371 427 40,000  Level Memphis Center
Sat 02:28:41 PM 35.4408 -94.0472 297° West 371 427 40,000  Level Memphis Center
Sat 02:29:41 PM 35.4878 -94.1589 297° West 371 427 40,000  Level Memphis Center
Sat 02:30:41 PM 35.5319 -94.2731 295° West 371 427 40,000  Level Memphis Center
Sat 02:31:41 PM 35.5806 -94.3850 298° West 371 427 40,000  Level Memphis Center
Sat 02:32:41 PM 35.6247 -94.4997 295° West 371 427 40,000  Level Memphis Center
Sat 02:33:41 PM 35.6711 -94.6119 297° West 371 427 40,000  Level Memphis Center
Sat 02:35:54 PM 35.7708 -94.8603 296° West 373 429 40,000  Level Kansas City Center
Sat 02:36:55 PM 35.8167 -94.9733 297° West 370 426 40,000  Level Kansas City Center
Sat 02:37:58 PM 35.8622 -95.0897 296° West 374 430 40,000  Level Kansas City Center
Sat 02:38:59 PM 35.9092 -95.2025 297° West 371 427 40,000  Level Kansas City Center
Sat 02:40:02 PM 35.9547 -95.3200 296° West 375 432 40,000  Level Kansas City Center
Sat 02:41:03 PM 36.0014 -95.4381 296° West 378 435 40,000  Level Kansas City Center
Sat 02:42:06 PM 36.0483 -95.5575 296° West 382 440 40,000  Level Kansas City Center
Sat 02:43:07 PM 36.0958 -95.6750 297° West 380 437 40,000  Level Kansas City Center
Sat 02:44:10 PM 36.1461 -95.8072 295° West 379 436 40,000  Level Kansas City Center
Sat 02:45:11 PM 36.1981 -95.9383 296° West 381 438 40,000  Level Kansas City Center
Sat 02:46:12 PM 36.2447 -96.0569 296° West 380 437 40,000  Level Kansas City Center
Sat 02:47:16 PM 36.2906 -96.1756 296° West 380 437 40,000  Level Kansas City Center
Sat 02:48:16 PM 36.3356 -96.2928 296° West 376 433 40,000  Level Kansas City Center
Sat 02:49:17 PM 36.3806 -96.4097 296° West 375 432 40,000  Level Kansas City Center
Sat 02:50:20 PM 36.4258 -96.5269 296° West 374 430 40,000  Level Kansas City Center
Sat 02:51:21 PM 36.4706 -96.6450 295° West 377 434 40,000  Level Kansas City Center
Sat 02:52:24 PM 36.5206 -96.7758 295° West 376 433 40,000  Level Kansas City Center
Sat 02:53:26 PM 36.5647 -96.8925 295° West 376 433 40,000  Level Kansas City Center
Sat 02:54:26 PM 36.6133 -97.0222 295° West 377 434 40,000  Level Kansas City Center
Sat 02:55:30 PM 36.6514 -97.1253 295° West 371 427 40,000  Level Kansas City Center
Sat 02:56:30 PM 36.6950 -97.2408 295° West 369 425 40,000  Level Kansas City Center
Sat 02:57:32 PM 36.7469 -97.3819 295° West 374 430 40,000  Level Kansas City Center
Sat 02:58:35 PM 36.7836 -97.4817 295° West 372 428 40,000  Level Kansas City Center
Sat 02:59:38 PM 36.8339 -97.6239 294° West 373 429 40,000  Level Kansas City Center
Sat 03:00:39 PM 36.8769 -97.7436 294° West 375 432 40,000  Level Kansas City Center
Sat 03:01:41 PM 36.9183 -97.8558 295° West 365 420 40,000  Level Kansas City Center
Sat 03:02:42 PM 36.9617 -97.9736 295° West 368 423 40,000  Level Kansas City Center
Sat 03:03:43 PM 37.0056 -98.0933 295° West 371 427 40,000  Level Kansas City Center
Sat 03:04:47 PM 37.0469 -98.2156 293° West 378 435 40,000  Level Kansas City Center
Sat 03:05:48 PM 37.0897 -98.3361 294° West 381 438 40,000  Level Kansas City Center
Sat 03:06:49 PM 37.1331 -98.4544 295° West 379 436 40,000  Level Kansas City Center
Sat 03:07:53 PM 37.1847 -98.5983 294° West 377 434 40,000  Level Kansas City Center
Sat 03:08:54 PM 37.2278 -98.7192 294° West 377 434 40,000  Level Kansas City Center
Sat 03:09:54 PM 37.2703 -98.8389 294° West 376 433 40,000  Level Kansas City Center
Sat 03:10:58 PM 37.3128 -98.9611 294° West 377 434 40,000  Level Kansas City Center
Sat 03:11:58 PM 37.3564 -99.0819 294° West 379 436 40,000  Level Kansas City Center
Sat 03:13:00 PM 37.3967 -99.2028 293° West 377 434 40,000  Level Kansas City Center
Sat 03:14:03 PM 37.4378 -99.3247 293° West 377 434 40,000  Level Kansas City Center
Sat 03:15:04 PM 37.4939 -99.4744 295° West 384 442 40,000  Level Kansas City Center
Sat 03:16:07 PM 37.5353 -99.5919 294° West 382 440 40,000  Level Kansas City Center
Sat 03:17:08 PM 37.5758 -99.7092 294° West 383 441 40,000  Level Kansas City Center
Sat 03:18:09 PM 37.6211 -99.8489 292° West 385 443 40,000  Level Kansas City Center
Sat 03:19:13 PM 37.6631 -99.9672 294° West 387 445 40,000  Level Kansas City Center
Sat 03:20:14 PM 37.7106 -100.1053 294° West 385 443 40,000  Level Kansas City Center
Sat 03:21:15 PM 37.7514 -100.2247 293° West 387 445 40,000  Level Kansas City Center
Sat 03:22:17 PM 37.7983 -100.3639 293° West 387 445 40,000  Level Kansas City Center
Sat 03:23:18 PM 37.8397 -100.4856 293° West 392 451 40,000  Level Kansas City Center
Sat 03:24:22 PM 37.8858 -100.6269 292° West 392 451 40,000  Level Kansas City Center
Sat 03:25:22 PM 37.9275 -100.7478 294° West 398 458 40,000  Level Kansas City Center
Sat 03:26:25 PM 37.9808 -100.8867 296° West 394 453 40,000  Level Kansas City Center
Sat 03:27:26 PM 38.0272 -101.0072 296° West 398 458 40,000  Level Kansas City Center
Sat 03:28:28 PM 38.0819 -101.1511 296° West 405 466 40,000  Level Kansas City Center
Sat 03:29:28 PM 38.1275 -101.2753 295° West 405 466 40,000  Level Kansas City Center
Sat 03:30:10 PM 38.1597 -101.3539 298° West 403 464 40,000 -233 Level Denver Center
Sat 03:31:11 PM 38.2178 -101.4939 298° West 403 464 39,600 -634 Descending Denver Center
Sat 03:32:13 PM 38.2781 -101.6125 303° West 415 478 38,700 -976 Descending Denver Center
Sat 03:33:14 PM 38.3475 -101.7533 302° West 420 483 37,600 -829 Descending Denver Center
Sat 03:34:16 PM 38.4083 -101.8731 303° West 421 484 37,000 -683 Descending Denver Center
Sat 03:35:17 PM 38.4767 -102.0128 302° West 418 481 36,200 -780 Descending Denver Center
Sat 03:36:19 PM 38.5364 -102.1347 302° West 422 486 35,400 -878 Descending Denver Center
Sat 03:37:20 PM 38.5961 -102.2564 302° West 422 486 34,400 -683 Descending Denver Center
Sat 03:38:22 PM 38.6667 -102.4003 302° West 427 491 34,000 -195 Descending Denver Center
Sat 03:39:23 PM 38.7244 -102.5219 301° West 421 484 34,000  Level Denver Center
Sat 03:40:24 PM 38.7939 -102.6664 302° West 425 489 34,000  Level Denver Center
Sat 03:41:26 PM 38.8542 -102.7908 302° West 423 487 34,000  Level Denver Center
Sat 03:42:27 PM 38.9156 -102.9183 302° West 422 486 34,000  Level Denver Center
Sat 03:43:29 PM 38.9772 -103.0478 302° West 425 489 34,000 -1,317 Level Denver Center
Sat 03:44:30 PM 39.0397 -103.1792 302° West 430 495 31,300 -2,537 Descending Denver Center
Sat 03:45:32 PM 39.1011 -103.3081 302° West 426 490 28,800 -2,613 Descending Denver Center
Sat 03:46:34 PM 39.1708 -103.4533 302° West 399 459 25,900 -2,537 Descending Denver Center
Sat 03:47:35 PM 39.2250 -103.5692 301° West 382 440 23,600 -2,195 Descending Denver Center
Sat 03:48:37 PM 39.2761 -103.6783 301° West 362 417 21,400 -2,038 Descending Denver Center
Sat 03:50:11 PM 39.3500 -103.8500 299° West 330 380 18,300 -1,558 Descending Denver TRACON
Sat 03:51:11 PM 39.4000 -103.9500 303° West 320 368 17,400 -1,200 Descending Denver TRACON
Sat 03:51:41 PM 39.4006 -104.0025 271° West 307 353 16,500 -1,630 Descending Denver Center
Sat 03:52:43 PM 39.4042 -104.1069 273° West 292 336 14,900 -1,512 Descending Denver Center
Sat 03:53:44 PM 39.4081 -104.2097 273° West 287 330 13,400 -1,171 Descending Denver Center
Sat 03:54:46 PM 39.4131 -104.3103 274° West 262 302 12,500 -780 Descending Denver Center
Sat 03:55:47 PM 39.4161 -104.3939 273° West 235 270 11,800 -976 Descending Denver Center
Sat 03:56:49 PM 39.4275 -104.4772 280° West 230 265 10,500 -1,268 Descending Denver Center
Sat 03:57:50 PM 39.4556 -104.5533 296° West 251 289 9,200 -732 Descending Denver Center
Sat 03:58:52 PM 39.5219 -104.5889 338° Northwest 259 298 9,000 -97 Descending Denver Center
Sat 03:59:54 PM 39.5853 -104.6228 338° Northwest 253 291 9,000 -49 Level Denver Center
Sat 04:00:55 PM 39.6567 -104.6603 338° Northwest 233 268 8,900 -689 Descending Denver Center
Sat 04:01:56 PM 39.7181 -104.6617 359° North 222 255 7,600 -1,171 Descending Denver Center
Sat 04:02:58 PM 39.7778 -104.6608 North 216 249 6,500 -968 Descending Denver Center
Sat 04:04:00 PM 39.8233 -104.6611 360° North 168 193 5,600 -871 Descending Denver Center
Sat 04:05:00 PM 39.8500 -104.6667 North  Level FlightAware Approximate
Sat 04:12:00 PM 39.8617 -104.6732 North  Level Estimated
Sat 04:13:00 PM 39.8617 -104.6732 North  Level Estimated
Sat 04:14:00 PM 39.8617 -104.6732 North  Level Estimated

Login

Don't have an account? Register now (free) for customized features, flight alerts, and more!